sensor_id;sensor_type;location;lat;lon;timestamp;P1;durP1;ratioP1;P2;durP2;ratioP2
20935;SDS011;10627;54.514;18.532;2023-04-01T00:02:47;12.13;;;4.50;;
20935;SDS011;10627;54.514;18.532;2023-04-01T00:07:48;12.23;;;5.07;;
20935;SDS011;10627;54.514;18.532;2023-04-01T00:12:49;8.67;;;5.10;;
20935;SDS011;10627;54.514;18.532;2023-04-01T00:17:50;7.47;;;4.90;;
20935;SDS011;10627;54.514;18.532;2023-04-01T00:22:51;10.40;;;5.20;;
20935;SDS011;10627;54.514;18.532;2023-04-01T00:27:51;11.17;;;6.27;;
20935;SDS011;10627;54.514;18.532;2023-04-01T00:32:52;10.47;;;5.80;;
20935;SDS011;10627;54.514;18.532;2023-04-01T00:37:53;8.33;;;5.23;;
20935;SDS011;10627;54.514;18.532;2023-04-01T00:42:55;9.33;;;5.60;;
20935;SDS011;10627;54.514;18.532;2023-04-01T00:47:56;7.63;;;5.03;;
20935;SDS011;10627;54.514;18.532;2023-04-01T00:53:00;6.90;;;4.97;;
20935;SDS011;10627;54.514;18.532;2023-04-01T00:58:03;6.87;;;4.30;;
20935;SDS011;10627;54.514;18.532;2023-04-01T01:03:05;6.47;;;4.87;;
20935;SDS011;10627;54.514;18.532;2023-04-01T01:08:12;5.70;;;4.17;;
20935;SDS011;10627;54.514;18.532;2023-04-01T01:14:28;5.63;;;3.53;;
20935;SDS011;10627;54.514;18.532;2023-04-01T01:35:24;5.20;;;3.30;;
20935;SDS011;10627;54.514;18.532;2023-04-01T01:40:28;6.07;;;3.73;;
20935;SDS011;10627;54.514;18.532;2023-04-01T01:45:29;4.80;;;3.03;;
20935;SDS011;10627;54.514;18.532;2023-04-01T01:50:31;5.47;;;3.50;;
20935;SDS011;10627;54.514;18.532;2023-04-01T01:55:34;9.10;;;3.47;;
20935;SDS011;10627;54.514;18.532;2023-04-01T02:00:37;5.20;;;3.93;;
20935;SDS011;10627;54.514;18.532;2023-04-01T02:05:38;4.47;;;3.60;;
20935;SDS011;10627;54.514;18.532;2023-04-01T02:10:45;7.27;;;4.27;;
20935;SDS011;10627;54.514;18.532;2023-04-01T02:15:51;5.60;;;3.47;;
20935;SDS011;10627;54.514;18.532;2023-04-01T02:20:57;3.83;;;3.30;;
20935;SDS011;10627;54.514;18.532;2023-04-01T02:25:59;4.93;;;3.30;;
20935;SDS011;10627;54.514;18.532;2023-04-01T02:31:01;5.03;;;3.10;;
20935;SDS011;10627;54.514;18.532;2023-04-01T02:36:03;4.97;;;3.10;;
20935;SDS011;10627;54.514;18.532;2023-04-01T02:41:06;5.67;;;3.33;;
20935;SDS011;10627;54.514;18.532;2023-04-01T02:46:07;4.87;;;3.53;;
20935;SDS011;10627;54.514;18.532;2023-04-01T02:51:08;3.93;;;3.37;;
20935;SDS011;10627;54.514;18.532;2023-04-01T02:56:09;4.57;;;3.30;;
20935;SDS011;10627;54.514;18.532;2023-04-01T03:01:10;7.23;;;3.13;;
20935;SDS011;10627;54.514;18.532;2023-04-01T03:06:12;5.90;;;4.03;;
20935;SDS011;10627;54.514;18.532;2023-04-01T03:11:15;6.47;;;4.07;;
20935;SDS011;10627;54.514;18.532;2023-04-01T03:16:16;8.23;;;4.77;;
20935;SDS011;10627;54.514;18.532;2023-04-01T03:21:18;8.83;;;4.70;;
20935;SDS011;10627;54.514;18.532;2023-04-01T03:26:22;8.40;;;5.70;;
20935;SDS011;10627;54.514;18.532;2023-04-01T03:31:23;7.93;;;5.07;;
20935;SDS011;10627;54.514;18.532;2023-04-01T03:36:27;8.90;;;5.80;;
20935;SDS011;10627;54.514;18.532;2023-04-01T03:41:29;9.37;;;5.53;;
20935;SDS011;10627;54.514;18.532;2023-04-01T03:46:31;7.93;;;5.43;;
20935;SDS011;10627;54.514;18.532;2023-04-01T03:51:32;15.57;;;5.63;;
20935;SDS011;10627;54.514;18.532;2023-04-01T03:56:33;20.50;;;5.67;;
20935;SDS011;10627;54.514;18.532;2023-04-01T04:01:34;12.27;;;5.63;;
20935;SDS011;10627;54.514;18.532;2023-04-01T04:06:36;14.67;;;5.73;;
20935;SDS011;10627;54.514;18.532;2023-04-01T04:11:36;11.67;;;5.13;;
20935;SDS011;10627;54.514;18.532;2023-04-01T04:16:37;15.03;;;5.37;;
20935;SDS011;10627;54.514;18.532;2023-04-01T04:21:45;14.60;;;5.63;;
20935;SDS011;10627;54.514;18.532;2023-04-01T04:26:47;13.13;;;5.10;;
20935;SDS011;10627;54.514;18.532;2023-04-01T04:31:48;12.47;;;4.70;;
20935;SDS011;10627;54.514;18.532;2023-04-01T04:36:49;11.03;;;4.53;;
20935;SDS011;10627;54.514;18.532;2023-04-01T04:41:50;13.40;;;4.90;;
20935;SDS011;10627;54.514;18.532;2023-04-01T04:46:50;9.33;;;4.47;;
20935;SDS011;10627;54.514;18.532;2023-04-01T04:51:51;12.03;;;4.90;;
20935;SDS011;10627;54.514;18.532;2023-04-01T04:57:01;12.20;;;4.80;;
20935;SDS011;10627;54.514;18.532;2023-04-01T05:02:06;13.83;;;5.23;;
20935;SDS011;10627;54.514;18.532;2023-04-01T05:07:07;11.10;;;4.80;;
20935;SDS011;10627;54.514;18.532;2023-04-01T05:12:09;12.77;;;5.03;;
20935;SDS011;10627;54.514;18.532;2023-04-01T05:17:29;7.87;;;4.40;;
20935;SDS011;10627;54.514;18.532;2023-04-01T05:22:31;7.63;;;3.53;;
20935;SDS011;10627;54.514;18.532;2023-04-01T05:27:32;10.10;;;3.90;;
20935;SDS011;10627;54.514;18.532;2023-04-01T05:32:34;8.53;;;3.83;;
20935;SDS011;10627;54.514;18.532;2023-04-01T05:37:35;5.90;;;3.07;;
20935;SDS011;10627;54.514;18.532;2023-04-01T05:42:38;11.87;;;3.67;;
20935;SDS011;10627;54.514;18.532;2023-04-01T05:47:40;5.73;;;4.20;;
20935;SDS011;10627;54.514;18.532;2023-04-01T05:52:40;12.80;;;3.37;;
20935;SDS011;10627;54.514;18.532;2023-04-01T05:57:41;9.87;;;6.13;;
20935;SDS011;10627;54.514;18.532;2023-04-01T06:02:43;7.70;;;3.20;;
20935;SDS011;10627;54.514;18.532;2023-04-01T06:07:44;5.60;;;3.87;;
20935;SDS011;10627;54.514;18.532;2023-04-01T06:12:48;3.97;;;2.20;;
20935;SDS011;10627;54.514;18.532;2023-04-01T06:18:19;8.93;;;5.17;;
20935;SDS011;10627;54.514;18.532;2023-04-01T06:50:26;11.50;;;3.60;;
20935;SDS011;10627;54.514;18.532;2023-04-01T06:55:51;5.70;;;3.27;;
20935;SDS011;10627;54.514;18.532;2023-04-01T07:01:12;4.47;;;2.83;;
20935;SDS011;10627;54.514;18.532;2023-04-01T07:06:28;3.80;;;2.70;;
20935;SDS011;10627;54.514;18.532;2023-04-01T07:11:34;4.60;;;2.33;;
20935;SDS011;10627;54.514;18.532;2023-04-01T07:17:14;3.07;;;2.17;;
20935;SDS011;10627;54.514;18.532;2023-04-01T07:27:46;2.10;;;1.87;;
20935;SDS011;10627;54.514;18.532;2023-04-01T07:33:08;5.17;;;2.30;;
20935;SDS011;10627;54.514;18.532;2023-04-01T07:49:08;4.27;;;2.90;;
20935;SDS011;10627;54.514;18.532;2023-04-01T07:59:26;5.37;;;2.50;;
20935;SDS011;10627;54.514;18.532;2023-04-01T08:10:22;5.37;;;3.03;;
20935;SDS011;10627;54.514;18.532;2023-04-01T08:15:55;6.90;;;2.93;;
20935;SDS011;10627;54.514;18.532;2023-04-01T08:21:25;10.27;;;3.57;;
20935;SDS011;10627;54.514;18.532;2023-04-01T08:26:32;6.67;;;3.30;;
20935;SDS011;10627;54.514;18.532;2023-04-01T08:31:43;3.37;;;2.37;;
20935;SDS011;10627;54.514;18.532;2023-04-01T08:36:59;5.67;;;2.63;;
20935;SDS011;10627;54.514;18.532;2023-04-01T08:47:30;7.87;;;2.20;;
20935;SDS011;10627;54.514;18.532;2023-04-01T08:52:43;3.67;;;1.70;;
20935;SDS011;10627;54.514;18.532;2023-04-01T09:04:24;7.53;;;2.07;;
20935;SDS011;10627;54.514;18.532;2023-04-01T09:59:08;7.53;;;2.17;;
20935;SDS011;10627;54.514;18.532;2023-04-01T11:27:17;3.50;;;1.30;;
20935;SDS011;10627;54.514;18.532;2023-04-01T11:32:45;1.27;;;0.93;;
20935;SDS011;10627;54.514;18.532;2023-04-01T11:43:22;2.27;;;1.30;;
20935;SDS011;10627;54.514;18.532;2023-04-01T11:49:12;2.07;;;1.60;;
20935;SDS011;10627;54.514;18.532;2023-04-01T12:10:26;4.37;;;2.83;;
20935;SDS011;10627;54.514;18.532;2023-04-01T12:20:49;2.40;;;1.60;;
20935;SDS011;10627;54.514;18.532;2023-04-01T12:31:47;2.03;;;1.30;;
20935;SDS011;10627;54.514;18.532;2023-04-01T13:30:39;3.50;;;1.77;;
20935;SDS011;10627;54.514;18.532;2023-04-01T13:52:37;6.07;;;2.23;;
20935;SDS011;10627;54.514;18.532;2023-04-01T14:24:22;10.43;;;2.80;;
20935;SDS011;10627;54.514;18.532;2023-04-01T14:56:34;6.27;;;3.37;;
20935;SDS011;10627;54.514;18.532;2023-04-01T15:12:53;12.37;;;3.93;;
20935;SDS011;10627;54.514;18.532;2023-04-01T15:23:40;9.87;;;4.20;;
20935;SDS011;10627;54.514;18.532;2023-04-01T15:34:25;8.10;;;4.20;;
20935;SDS011;10627;54.514;18.532;2023-04-01T16:11:56;9.13;;;3.60;;
20935;SDS011;10627;54.514;18.532;2023-04-01T16:27:42;10.07;;;3.80;;
20935;SDS011;10627;54.514;18.532;2023-04-01T16:38:34;10.03;;;5.10;;
20935;SDS011;10627;54.514;18.532;2023-04-01T16:43:41;10.87;;;3.93;;
20935;SDS011;10627;54.514;18.532;2023-04-01T16:59:37;8.20;;;3.50;;
20935;SDS011;10627;54.514;18.532;2023-04-01T17:04:56;5.97;;;3.30;;
20935;SDS011;10627;54.514;18.532;2023-04-01T17:15:25;4.20;;;3.27;;
20935;SDS011;10627;54.514;18.532;2023-04-01T17:25:53;6.47;;;3.63;;
20935;SDS011;10627;54.514;18.532;2023-04-01T17:36:22;10.10;;;3.30;;
20935;SDS011;10627;54.514;18.532;2023-04-01T17:47:49;6.17;;;3.17;;
20935;SDS011;10627;54.514;18.532;2023-04-01T18:09:00;5.67;;;3.30;;
20935;SDS011;10627;54.514;18.532;2023-04-01T18:19:43;6.90;;;3.00;;
20935;SDS011;10627;54.514;18.532;2023-04-01T18:40:54;3.40;;;2.50;;
20935;SDS011;10627;54.514;18.532;2023-04-01T18:46:36;4.17;;;2.30;;
20935;SDS011;10627;54.514;18.532;2023-04-01T18:51:48;6.27;;;2.73;;
20935;SDS011;10627;54.514;18.532;2023-04-01T18:57:04;7.43;;;3.90;;
20935;SDS011;10627;54.514;18.532;2023-04-01T19:02:33;5.63;;;2.90;;
20935;SDS011;10627;54.514;18.532;2023-04-01T19:17:52;4.03;;;2.50;;
20935;SDS011;10627;54.514;18.532;2023-04-01T19:23:33;6.13;;;2.93;;
20935;SDS011;10627;54.514;18.532;2023-04-01T19:45:14;3.97;;;2.20;;
20935;SDS011;10627;54.514;18.532;2023-04-01T20:00:51;4.90;;;2.33;;
20935;SDS011;10627;54.514;18.532;2023-04-01T20:21:52;4.27;;;2.40;;
20935;SDS011;10627;54.514;18.532;2023-04-01T20:27:03;3.83;;;2.10;;
20935;SDS011;10627;54.514;18.532;2023-04-01T20:32:43;4.97;;;2.60;;
20935;SDS011;10627;54.514;18.532;2023-04-01T20:38:03;3.83;;;1.90;;
20935;SDS011;10627;54.514;18.532;2023-04-01T21:21:03;7.00;;;2.90;;
20935;SDS011;10627;54.514;18.532;2023-04-01T21:42:32;2.80;;;2.37;;
20935;SDS011;10627;54.514;18.532;2023-04-01T21:47:50;4.77;;;2.67;;
20935;SDS011;10627;54.514;18.532;2023-04-01T21:58:23;3.63;;;2.20;;
20935;SDS011;10627;54.514;18.532;2023-04-01T22:30:10;3.27;;;2.20;;
20935;SDS011;10627;54.514;18.532;2023-04-01T22:46:01;2.97;;;2.00;;
20935;SDS011;10627;54.514;18.532;2023-04-01T22:51:13;4.03;;;2.17;;
20935;SDS011;10627;54.514;18.532;2023-04-01T22:56:22;2.23;;;1.70;;
20935;SDS011;10627;54.514;18.532;2023-04-01T23:01:29;5.50;;;1.90;;
20935;SDS011;10627;54.514;18.532;2023-04-01T23:06:35;5.23;;;1.90;;
20935;SDS011;10627;54.514;18.532;2023-04-01T23:27:37;6.63;;;1.83;;
20935;SDS011;10627;54.514;18.532;2023-04-01T23:32:46;5.37;;;1.70;;
20935;SDS011;10627;54.514;18.532;2023-04-01T23:37:48;7.17;;;1.50;;
20935;SDS011;10627;54.514;18.532;2023-04-01T23:42:49;5.70;;;2.13;;
20935;SDS011;10627;54.514;18.532;2023-04-01T23:47:50;4.87;;;1.70;;
20935;SDS011;10627;54.514;18.532;2023-04-01T23:52:58;3.50;;;1.60;;
